Time;durP1;ratioP1;P1;durP2;ratioP2;P2;SDS_P1;SDS_P2;PMS_P1;PMS_P2;Temp;Humidity;BMP_temperature;BMP_pressure;BME280_temperature;BME280_humidity;BME280_pressure;Samples;Min_cycle;Max_cycle;Signal;HPM_P1;HPM_P2
2021/09/20 00:01:33;;;;;;;3.42;2.90;;;15.70;99.90;;;;;;5053968;28;20028;-88
2021/09/20 00:03:59;;;;;;;4.63;3.10;;;15.70;99.90;;;;;;5055063;28;20029;-88
2021/09/20 00:06:26;;;;;;;3.15;2.85;;;15.70;99.90;;;;;;5053681;28;20120;-88
2021/09/20 00:08:52;;;;;;;3.30;3.00;;;15.80;99.90;;;;;;5053703;28;20079;-88
2021/09/20 00:11:18;;;;;;;4.35;3.03;;;15.80;99.90;;;;;;5054849;28;20025;-88
2021/09/20 00:13:44;;;;;;;4.07;3.63;;;15.70;99.90;;;;;;5053586;28;20028;-88
2021/09/20 00:16:10;;;;;;;3.35;2.50;;;15.80;99.90;;;;;;5053508;28;20508;-88
2021/09/20 00:18:36;;;;;;;4.38;3.20;;;15.80;99.90;;;;;;5053359;28;20393;-88
2021/09/20 00:21:02;;;;;;;3.45;2.67;;;15.90;99.90;;;;;;5053994;28;20025;-88
2021/09/20 00:23:28;;;;;;;3.47;2.92;;;16.00;99.90;;;;;;5053337;28;20021;-88
2021/09/20 00:25:54;;;;;;;3.40;2.58;;;15.90;99.90;;;;;;5053288;28;20021;-88
2021/09/20 00:28:20;;;;;;;4.15;2.83;;;15.90;99.90;;;;;;5053368;28;20024;-88
2021/09/20 00:30:46;;;;;;;4.75;2.90;;;15.70;99.90;;;;;;5054696;28;20499;-89
2021/09/20 00:33:12;;;;;;;3.80;2.80;;;15.80;99.90;;;;;;5054439;28;20100;-89
2021/09/20 00:35:37;;;;;;;3.03;2.53;;;15.70;99.90;;;;;;5054546;28;20112;-87
2021/09/20 00:38:04;;;;;;;3.38;2.85;;;15.80;99.90;;;;;;5053084;28;20455;-88
2021/09/20 00:40:30;;;;;;;4.22;3.00;;;16.00;99.90;;;;;;5053134;28;20551;-88
2021/09/20 00:42:56;;;;;;;5.32;2.58;;;16.20;99.90;;;;;;5053028;28;20078;-88
2021/09/20 00:45:22;;;;;;;4.00;3.60;;;16.30;99.90;;;;;;5053162;28;20025;-88
2021/09/20 00:47:48;;;;;;;5.43;3.33;;;16.10;99.90;;;;;;5052918;28;20431;-88
2021/09/20 00:50:14;;;;;;;7.20;3.72;;;16.30;99.90;;;;;;5052927;28;20021;-88
2021/09/20 00:52:39;;;;;;;4.68;3.10;;;16.00;99.90;;;;;;5054278;28;20029;-88
2021/09/20 00:55:06;;;;;;;6.65;3.13;;;15.90;99.90;;;;;;5052818;28;20493;-88
2021/09/20 00:57:33;;;;;;;5.10;3.00;;;15.80;99.90;;;;;;5056611;28;20021;-88
2021/09/20 00:59:59;;;;;;;3.28;2.97;;;15.90;99.90;;;;;;5058023;28;20166;-88
2021/09/20 01:02:24;;;;;;;6.68;2.78;;;16.00;99.90;;;;;;5055021;28;20083;-88
2021/09/20 01:04:50;;;;;;;5.50;3.30;;;15.90;99.90;;;;;;5053365;28;20040;-88
2021/09/20 01:07:16;;;;;;;5.68;3.33;;;15.90;99.90;;;;;;5053153;28;20028;-88
2021/09/20 01:09:42;;;;;;;5.50;3.25;;;15.80;99.90;;;;;;5054240;28;20103;-88
2021/09/20 01:12:12;;;;;;;4.40;2.75;;;15.70;99.90;;;;;;5052893;28;20021;-88
2021/09/20 01:14:38;;;;;;;4.93;3.67;;;15.70;99.90;;;;;;5052799;28;20017;-88
2021/09/20 01:17:05;;;;;;;3.40;3.00;;;15.50;99.90;;;;;;5052933;28;20029;-88
2021/09/20 01:19:31;;;;;;;4.05;3.47;;;15.50;99.90;;;;;;5052638;28;20021;-89
2021/09/20 01:22:09;;;;;;;6.85;3.15;;;15.70;99.90;;;;;;5052547;28;20116;-88
2021/09/20 01:24:35;;;;;;;5.50;3.40;;;15.50;99.90;;;;;;5052433;28;20480;-88
2021/09/20 01:27:03;;;;;;;4.95;3.33;;;15.50;99.90;;;;;;5052382;28;20070;-88
2021/09/20 01:29:29;;;;;;;3.75;2.88;;;15.60;99.90;;;;;;5052324;28;20025;-88
2021/09/20 01:31:57;;;;;;;3.45;2.97;;;15.90;99.90;;;;;;5052034;28;20127;-88
2021/09/20 01:34:24;;;;;;;5.35;3.78;;;16.20;99.90;;;;;;5052346;28;20136;-88
2021/09/20 01:36:51;;;;;;;3.58;3.28;;;16.00;99.90;;;;;;5052053;28;20029;-88
2021/09/20 01:39:23;;;;;;;4.90;3.50;;;15.80;99.90;;;;;;5052244;28;20560;-88
2021/09/20 01:41:50;;;;;;;3.03;2.70;;;15.70;99.90;;;;;;5052121;28;20029;-88
2021/09/20 01:44:16;;;;;;;4.93;3.88;;;16.10;99.90;;;;;;5052199;28;20029;-88
2021/09/20 01:46:43;;;;;;;5.47;3.60;;;16.10;99.90;;;;;;5052251;28;20110;-88
2021/09/20 01:49:09;;;;;;;5.18;3.65;;;16.00;99.90;;;;;;5052093;28;20021;-88
2021/09/20 01:51:35;;;;;;;4.88;3.72;;;15.90;99.90;;;;;;5052087;28;20112;-88
2021/09/20 01:54:02;;;;;;;4.03;3.30;;;15.50;99.90;;;;;;5053632;28;20052;-88
2021/09/20 01:56:27;;;;;;;3.88;3.13;;;15.50;99.90;;;;;;5051920;28;20157;-88
2021/09/20 01:58:53;;;;;;;3.50;2.75;;;15.70;99.90;;;;;;5052212;28;20465;-88
2021/09/20 02:01:19;;;;;;;6.72;3.42;;;15.80;99.90;;;;;;5053206;28;20029;-88
2021/09/20 02:03:44;;;;;;;6.40;3.72;;;16.00;99.90;;;;;;5051841;28;20090;-88
2021/09/20 02:06:10;;;;;;;4.63;3.22;;;15.90;99.90;;;;;;5051914;28;20017;-88
2021/09/20 02:08:36;;;;;;;3.50;3.20;;;15.80;99.90;;;;;;5053227;28;20021;-88
2021/09/20 02:11:03;;;;;;;5.40;3.15;;;15.80;99.90;;;;;;5052104;28;20108;-88
2021/09/20 02:13:29;;;;;;;3.47;3.03;;;15.90;99.90;;;;;;5052081;28;20036;-88
2021/09/20 02:15:55;;;;;;;5.72;3.08;;;15.80;99.90;;;;;;5051951;28;20025;-88
2021/09/20 02:18:21;;;;;;;6.13;3.20;;;15.60;99.90;;;;;;5051899;28;20031;-88
2021/09/20 02:20:47;;;;;;;4.43;3.20;;;15.70;99.90;;;;;;5051889;28;20035;-88
2021/09/20 02:23:14;;;;;;;5.45;3.17;;;15.60;99.90;;;;;;5051700;28;20440;-88
2021/09/20 02:25:40;;;;;;;5.68;3.10;;;15.50;99.90;;;;;;5051741;28;20517;-88
2021/09/20 02:28:07;;;;;;;3.78;2.78;;;15.40;99.90;;;;;;5053263;28;20021;-88
2021/09/20 02:30:32;;;;;;;4.10;3.40;;;15.50;99.90;;;;;;5051746;28;20076;-88
2021/09/20 02:32:58;;;;;;;3.95;3.50;;;15.70;99.90;;;;;;5051711;28;20021;-88
2021/09/20 02:35:24;;;;;;;4.80;3.53;;;15.60;99.90;;;;;;5052028;28;20091;-88
2021/09/20 02:37:50;;;;;;;4.35;3.78;;;15.60;99.90;;;;;;5051876;28;20025;-88
2021/09/20 02:40:15;;;;;;;3.85;2.95;;;15.60;99.90;;;;;;5051458;28;20397;-88
2021/09/20 02:42:41;;;;;;;5.00;3.20;;;15.80;99.90;;;;;;5053494;28;20074;-88
2021/09/20 02:45:07;;;;;;;5.88;3.33;;;15.70;99.90;;;;;;5055762;28;20044;-88
2021/09/20 02:47:35;;;;;;;19.95;4.07;;;15.70;99.90;;;;;;5055263;28;20025;-88
2021/09/20 02:50:01;;;;;;;4.85;3.70;;;15.50;99.90;;;;;;5055343;28;20021;-88
2021/09/20 02:52:26;;;;;;;3.35;3.05;;;15.40;99.90;;;;;;5055336;28;20048;-88
2021/09/20 02:54:52;;;;;;;4.20;3.53;;;15.30;99.90;;;;;;5055113;28;20055;-88
2021/09/20 02:57:18;;;;;;;3.75;3.17;;;15.30;99.90;;;;;;5055324;28;20476;-88
2021/09/20 02:59:43;;;;;;;5.68;4.13;;;15.30;99.90;;;;;;5055052;28;20021;-87
2021/09/20 03:02:09;;;;;;;5.93;3.15;;;15.40;99.90;;;;;;5055172;28;20460;-88
2021/09/20 03:04:35;;;;;;;6.95;3.40;;;15.40;99.90;;;;;;5055056;28;20039;-88
2021/09/20 03:07:00;;;;;;;3.75;3.10;;;15.30;99.90;;;;;;5055302;28;20357;-88
2021/09/20 03:09:26;;;;;;;3.90;3.33;;;15.30;99.90;;;;;;5057787;28;20092;-88
2021/09/20 03:11:52;;;;;;;4.70;3.53;;;15.20;99.90;;;;;;5058317;28;20021;-89
2021/09/20 03:14:17;;;;;;;5.30;3.35;;;15.20;99.90;;;;;;5055730;28;20052;-88
2021/09/20 03:16:43;;;;;;;9.57;3.70;;;15.30;99.90;;;;;;5055088;28;20036;-88
2021/09/20 03:19:09;;;;;;;4.63;3.38;;;15.40;99.90;;;;;;5054736;28;20060;-88
2021/09/20 03:21:34;;;;;;;5.28;3.60;;;15.30;99.90;;;;;;5054748;28;20032;-88
2021/09/20 03:24:01;;;;;;;4.78;3.90;;;15.50;99.90;;;;;;5054623;28;20029;-87
2021/09/20 03:26:27;;;;;;;4.78;2.95;;;15.50;99.90;;;;;;5056116;28;20533;-88
2021/09/20 03:28:53;;;;;;;4.32;3.15;;;15.70;99.90;;;;;;5054491;28;20104;-88
2021/09/20 03:31:18;;;;;;;7.38;3.50;;;15.50;99.90;;;;;;5054480;28;20017;-88
2021/09/20 03:33:44;;;;;;;5.68;3.83;;;15.40;99.90;;;;;;5054413;28;20025;-88
2021/09/20 03:36:10;;;;;;;4.55;3.40;;;15.40;99.90;;;;;;5054287;28;20029;-89
2021/09/20 03:38:36;;;;;;;4.88;3.97;;;15.30;99.90;;;;;;5055741;28;20031;-88
2021/09/20 03:41:02;;;;;;;4.75;3.30;;;15.40;99.90;;;;;;5054354;28;20117;-89
2021/09/20 03:43:27;;;;;;;5.70;3.42;;;15.20;99.90;;;;;;5054182;28;20463;-88
2021/09/20 03:45:53;;;;;;;3.30;2.92;;;15.30;99.90;;;;;;5054162;28;20052;-88
2021/09/20 03:48:19;;;;;;;5.57;3.08;;;15.50;99.90;;;;;;5054098;28;20544;-87
2021/09/20 03:50:45;;;;;;;4.45;3.30;;;15.70;99.90;;;;;;5055262;28;20021;-88
2021/09/20 03:53:10;;;;;;;3.30;3.00;;;15.60;99.90;;;;;;5053934;28;20544;-88
2021/09/20 03:55:36;;;;;;;3.97;2.45;;;15.70;99.90;;;;;;5045442;28;20049;-88
2021/09/20 03:58:02;;;;;;;5.18;3.17;;;15.80;99.90;;;;;;5017529;28;20117;-88
2021/09/20 04:00:27;;;;;;;5.13;3.08;;;15.80;99.90;;;;;;5017328;28;20037;-88
2021/09/20 04:02:53;;;;;;;3.63;2.92;;;15.80;99.90;;;;;;5017265;28;20040;-88
2021/09/20 04:05:19;;;;;;;7.45;3.42;;;15.40;99.90;;;;;;5017279;28;20363;-88
2021/09/20 04:07:45;;;;;;;4.45;2.92;;;15.30;99.90;;;;;;5017530;28;20026;-88
2021/09/20 04:10:12;;;;;;;3.25;2.95;;;15.40;99.90;;;;;;5017344;28;20025;-88
2021/09/20 04:12:38;;;;;;;3.30;2.92;;;15.50;99.90;;;;;;5017137;28;20028;-88
2021/09/20 04:15:05;;;;;;;3.28;2.83;;;15.60;99.90;;;;;;5017118;28;20041;-88
2021/09/20 04:17:31;;;;;;;5.53;2.95;;;15.70;99.90;;;;;;5017008;28;20021;-88
2021/09/20 04:19:57;;;;;;;4.15;3.58;;;15.70;99.90;;;;;;5017301;28;20191;-88
2021/09/20 04:22:22;;;;;;;5.95;3.10;;;15.60;99.90;;;;;;5017053;28;20028;-88
2021/09/20 04:24:48;;;;;;;5.03;3.13;;;15.50;99.90;;;;;;5034935;28;20025;-88
2021/09/20 04:27:14;;;;;;;4.25;3.15;;;15.30;99.90;;;;;;5016920;28;20485;-88
2021/09/20 04:29:40;;;;;;;7.25;3.20;;;15.20;99.90;;;;;;5016877;28;20028;-88
2021/09/20 04:32:06;;;;;;;6.07;3.35;;;15.00;99.90;;;;;;5016823;28;20105;-88
2021/09/20 04:34:32;;;;;;;6.90;3.38;;;15.20;99.90;;;;;;5034568;28;20021;-88
2021/09/20 04:36:57;;;;;;;6.90;3.42;;;15.30;99.90;;;;;;5016534;28;20076;-88
2021/09/20 04:39:23;;;;;;;3.78;3.30;;;15.40;99.90;;;;;;5016767;28;20029;-88
2021/09/20 04:41:49;;;;;;;5.63;3.70;;;15.30;99.90;;;;;;5016518;28;20047;-88
2021/09/20 04:44:14;;;;;;;3.50;2.92;;;15.40;99.90;;;;;;5016626;28;20036;-88
2021/09/20 04:46:40;;;;;;;5.40;3.53;;;15.40;99.90;;;;;;5016562;28;20026;-87
2021/09/20 04:49:06;;;;;;;5.25;3.13;;;15.40;99.90;;;;;;5016748;28;20112;-88
2021/09/20 04:51:32;;;;;;;6.03;3.58;;;15.30;99.90;;;;;;5017242;28;20022;-88
2021/09/20 04:53:58;;;;;;;4.03;3.17;;;15.40;99.90;;;;;;5034559;28;20497;-88
2021/09/20 04:56:24;;;;;;;4.68;3.80;;;15.20;99.90;;;;;;5034236;28;20041;-88
2021/09/20 04:58:49;;;;;;;5.50;4.20;;;15.10;99.90;;;;;;5016287;28;20033;-88
2021/09/20 05:01:15;;;;;;;4.78;3.83;;;15.10;99.90;;;;;;5016323;28;20374;-87
2021/09/20 05:03:41;;;;;;;6.38;3.35;;;15.00;99.90;;;;;;5016171;28;20041;-87
2021/09/20 05:06:06;;;;;;;6.85;4.00;;;15.00;99.90;;;;;;5015827;28;20539;-85
2021/09/20 05:08:32;;;;;;;4.63;3.35;;;15.20;99.90;;;;;;5016405;28;20032;-87
2021/09/20 05:10:59;;;;;;;8.10;3.35;;;15.50;99.90;;;;;;5034069;28;20026;-87
2021/09/20 05:13:25;;;;;;;5.50;3.65;;;15.50;99.90;;;;;;5016009;28;20103;-87
2021/09/20 05:15:50;;;;;;;3.92;3.53;;;15.50;99.90;;;;;;5016142;28;20496;-87
2021/09/20 05:18:16;;;;;;;5.15;3.00;;;15.50;99.90;;;;;;5016567;28;20029;-87
2021/09/20 05:20:42;;;;;;;4.10;3.05;;;15.60;99.90;;;;;;5019510;28;20029;-87
2021/09/20 05:23:08;;;;;;;3.65;2.88;;;15.80;99.90;;;;;;5019655;28;20064;-87
2021/09/20 05:25:33;;;;;;;5.53;3.45;;;15.70;99.90;;;;;;5017050;28;20077;-87
2021/09/20 05:28:00;;;;;;;3.78;3.08;;;15.70;99.90;;;;;;5016218;28;20021;-87
2021/09/20 05:30:26;;;;;;;6.30;3.45;;;15.40;99.90;;;;;;5033995;28;20026;-87
2021/09/20 05:32:52;;;;;;;6.95;3.65;;;15.50;99.90;;;;;;5033591;28;20021;-87
2021/09/20 05:35:18;;;;;;;9.38;6.90;;;15.60;99.90;;;;;;5015780;28;20029;-86
2021/09/20 05:37:48;;;;;;;6.28;3.67;;;15.40;99.90;;;;;;5015611;28;20120;-87
2021/09/20 05:40:15;;;;;;;4.70;3.55;;;15.20;99.90;;;;;;5015691;28;20497;-87
2021/09/20 05:42:42;;;;;;;4.88;3.90;;;15.20;99.90;;;;;;5033308;28;20393;-87
2021/09/20 05:45:09;;;;;;;5.35;3.95;;;15.20;99.90;;;;;;5015590;28;20026;-87
2021/09/20 05:47:35;;;;;;;11.32;4.07;;;15.20;99.90;;;;;;5015621;28;20090;-87
2021/09/20 05:50:01;;;;;;;6.78;3.90;;;15.20;99.90;;;;;;5015576;28;20045;-87
2021/09/20 05:52:26;;;;;;;5.57;3.28;;;15.00;99.90;;;;;;5015539;28;20025;-87
2021/09/20 05:54:52;;;;;;;4.65;3.58;;;15.10;99.90;;;;;;5018743;28;20041;-88
2021/09/20 05:57:18;;;;;;;7.28;3.42;;;15.10;99.90;;;;;;5051795;28;20366;-88
2021/09/20 05:59:44;;;;;;;6.72;3.60;;;15.10;99.90;;;;;;5051902;28;20078;-87
2021/09/20 06:02:10;;;;;;;5.10;3.63;;;15.00;99.90;;;;;;5051878;28;20079;-88
2021/09/20 06:04:36;;;;;;;5.13;3.80;;;15.10;99.90;;;;;;5051630;28;20491;-87
2021/09/20 06:07:01;;;;;;;9.63;4.22;;;15.20;99.90;;;;;;5051801;28;20452;-87
2021/09/20 06:09:27;;;;;;;5.10;4.15;;;15.40;99.90;;;;;;5051698;28;20052;-87
2021/09/20 06:11:53;;;;;;;4.82;4.28;;;15.50;99.90;;;;;;5051738;28;20025;-87
2021/09/20 06:14:19;;;;;;;7.28;4.75;;;15.20;99.90;;;;;;5053028;28;20032;-87
2021/09/20 06:16:45;;;;;;;10.93;5.20;;;15.20;99.90;;;;;;5051576;28;20050;-87
2021/09/20 06:19:11;;;;;;;7.75;5.28;;;15.10;99.90;;;;;;5055925;28;20108;-88
2021/09/20 06:21:36;;;;;;;4.95;3.92;;;15.30;99.90;;;;;;5056951;28;20092;-87
2021/09/20 06:24:02;;;;;;;7.72;5.28;;;15.40;99.90;;;;;;5055544;28;20455;-87
2021/09/20 06:26:28;;;;;;;6.90;5.60;;;15.50;99.90;;;;;;5056838;28;20048;-87
2021/09/20 06:28:54;;;;;;;5.68;4.28;;;15.80;99.90;;;;;;5055449;28;20053;-87
2021/09/20 06:31:19;;;;;;;6.05;5.05;;;15.90;99.90;;;;;;5055464;28;20515;-84
2021/09/20 06:33:45;;;;;;;7.10;5.40;;;15.80;99.90;;;;;;5055301;28;20121;-87
2021/09/20 06:36:11;;;;;;;7.38;4.72;;;15.70;99.90;;;;;;5055367;28;20028;-87
2021/09/20 06:38:36;;;;;;;8.80;4.95;;;15.60;99.90;;;;;;5056605;28;20394;-87
2021/09/20 06:41:02;;;;;;;6.88;5.75;;;15.40;99.90;;;;;;5055394;28;20025;-87
2021/09/20 06:43:28;;;;;;;13.70;6.40;;;15.50;99.90;;;;;;5055074;28;20036;-87
2021/09/20 06:45:54;;;;;;;8.65;6.53;;;15.70;99.90;;;;;;5055289;28;20023;-87
2021/09/20 06:48:20;;;;;;;7.90;5.32;;;15.80;99.90;;;;;;5055253;28;20044;-87
2021/09/20 06:50:45;;;;;;;8.68;6.85;;;15.60;99.90;;;;;;5055114;28;20037;-87
2021/09/20 06:53:11;;;;;;;7.65;6.55;;;15.50;99.90;;;;;;5055050;28;20017;-87
2021/09/20 06:55:37;;;;;;;6.30;5.63;;;15.40;99.90;;;;;;5054885;28;20450;-87
2021/09/20 06:58:04;;;;;;;8.40;5.45;;;15.50;99.90;;;;;;5055001;28;20032;-87
2021/09/20 07:00:31;;;;;;;7.00;4.85;;;15.70;99.90;;;;;;5054946;28;20017;-88
2021/09/20 07:02:57;;;;;;;9.10;5.65;;;15.70;99.90;;;;;;5055009;28;20139;-87
2021/09/20 07:05:24;;;;;;;7.22;5.25;;;15.90;99.90;;;;;;5055058;28;20037;-87
2021/09/20 07:07:49;;;;;;;8.45;6.63;;;16.00;99.90;;;;;;5054842;28;20029;-87
2021/09/20 07:10:16;;;;;;;5.85;4.85;;;16.00;99.90;;;;;;5054740;28;20032;-87
2021/09/20 07:12:43;;;;;;;9.05;6.93;;;16.00;99.90;;;;;;5054650;28;20029;-87
2021/09/20 07:15:10;;;;;;;8.25;5.85;;;16.00;99.90;;;;;;5054732;28;20075;-87
2021/09/20 07:17:36;;;;;;;8.38;5.70;;;16.00;99.90;;;;;;5054548;28;20025;-87
2021/09/20 07:20:04;;;;;;;8.90;6.40;;;15.90;99.90;;;;;;5054563;28;20029;-87
2021/09/20 07:22:29;;;;;;;9.45;6.28;;;16.20;99.90;;;;;;5055747;28;20021;-87
2021/09/20 07:24:56;;;;;;;6.80;5.63;;;16.10;99.90;;;;;;5054419;28;20083;-88
2021/09/20 07:27:21;;;;;;;10.15;5.20;;;16.30;99.90;;;;;;5054438;28;20025;-87
2021/09/20 07:29:47;;;;;;;5.68;5.05;;;16.50;99.90;;;;;;5054269;28;20021;-87
2021/09/20 07:32:13;;;;;;;5.88;5.22;;;16.50;99.90;;;;;;5060254;28;20021;-87
2021/09/20 07:34:38;;;;;;;6.95;5.93;;;16.50;99.90;;;;;;5060084;28;20021;-87
2021/09/20 07:37:04;;;;;;;7.40;6.30;;;16.50;99.90;;;;;;5056114;28;20032;-88
2021/09/20 07:39:32;;;;;;;9.18;5.13;;;16.50;99.90;;;;;;5054771;28;20029;-87
2021/09/20 07:41:58;;;;;;;8.55;5.70;;;16.60;99.90;;;;;;5054422;28;20029;-88
2021/09/20 07:44:24;;;;;;;6.05;5.13;;;16.60;99.90;;;;;;5055406;28;20358;-87
2021/09/20 07:46:50;;;;;;;6.70;5.93;;;16.70;99.90;;;;;;5054241;28;20104;-88
2021/09/20 07:49:15;;;;;;;10.05;6.00;;;16.50;99.90;;;;;;5054210;28;20070;-87
2021/09/20 07:51:41;;;;;;;8.60;5.93;;;16.50;99.90;;;;;;5055385;28;20078;-87
2021/09/20 07:54:07;;;;;;;6.38;5.28;;;16.50;99.90;;;;;;5054041;28;20064;-87
2021/09/20 07:56:33;;;;;;;6.95;4.85;;;16.50;99.90;;;;;;5053876;28;20056;-87
2021/09/20 07:59:02;;;;;;;10.15;5.65;;;16.40;99.90;;;;;;5053917;28;20052;-87
2021/09/20 08:01:29;;;;;;;6.93;6.05;;;16.50;99.90;;;;;;5055135;28;20021;-87
2021/09/20 08:03:55;;;;;;;6.57;5.20;;;16.60;99.90;;;;;;5053770;28;20033;-87
2021/09/20 08:06:22;;;;;;;5.28;4.63;;;16.70;99.90;;;;;;5053836;28;20029;-87
2021/09/20 08:08:48;;;;;;;10.40;5.85;;;16.70;99.90;;;;;;5055010;28;20025;-87
2021/09/20 08:11:13;;;;;;;8.02;6.10;;;16.70;99.90;;;;;;5053695;28;20028;-87
2021/09/20 08:13:39;;;;;;;6.40;4.88;;;17.00;99.90;;;;;;5053677;28;20029;-87
2021/09/20 08:16:05;;;;;;;5.63;4.88;;;17.00;99.90;;;;;;5053516;28;20029;-87
2021/09/20 08:18:31;;;;;;;7.20;5.57;;;17.10;99.90;;;;;;5053768;28;20078;-87
2021/09/20 08:20:57;;;;;;;6.53;5.30;;;17.00;99.90;;;;;;5053561;28;20025;-88
2021/09/20 08:23:23;;;;;;;5.70;4.90;;;16.90;99.90;;;;;;5053389;28;20040;-87
2021/09/20 08:25:49;;;;;;;8.57;5.07;;;16.90;99.90;;;;;;5053434;28;20017;-86
2021/09/20 08:28:15;;;;;;;6.25;4.72;;;17.10;99.90;;;;;;5053446;28;20024;-88
2021/09/20 08:30:41;;;;;;;6.95;5.57;;;17.10;99.90;;;;;;5053348;28;20028;-88
2021/09/20 08:33:07;;;;;;;5.20;4.53;;;17.00;99.90;;;;;;5053629;28;20027;-88
2021/09/20 08:35:34;;;;;;;6.80;5.47;;;17.20;99.90;;;;;;5053186;28;20075;-88
2021/09/20 08:38:00;;;;;;;5.68;4.78;;;17.20;99.90;;;;;;5053098;28;20021;-87
2021/09/20 08:40:27;;;;;;;6.15;5.18;;;17.20;99.90;;;;;;5053590;28;20472;-87
2021/09/20 08:42:54;;;;;;;6.55;5.40;;;17.20;99.90;;;;;;5053079;28;20060;-87
2021/09/20 08:45:21;;;;;;;4.93;4.32;;;17.30;99.90;;;;;;5054220;28;20017;-87
2021/09/20 08:47:49;;;;;;;7.32;5.90;;;17.40;99.90;;;;;;5054269;28;20033;-87
2021/09/20 08:50:18;;;;;;;9.18;6.53;;;17.30;99.90;;;;;;5053319;28;20021;-87
2021/09/20 08:52:44;;;;;;;6.63;5.97;;;17.30;99.90;;;;;;5052931;28;20021;-88
2021/09/20 08:55:10;;;;;;;10.05;7.22;;;17.40;99.90;;;;;;5052734;28;20503;-88
2021/09/20 08:57:36;;;;;;;6.65;5.38;;;17.30;99.90;;;;;;5054111;28;20032;-87
2021/09/20 09:00:05;;;;;;;8.50;6.53;;;17.30;99.90;;;;;;5054011;28;20385;-87
2021/09/20 09:02:32;;;;;;;8.63;6.00;;;17.20;99.90;;;;;;5052640;28;20048;-87
2021/09/20 09:05:20;;;;;;;6.78;5.97;;;17.30;99.90;;;;;;5053887;28;20029;-87
2021/09/20 09:07:49;;;;;;;6.10;4.85;;;17.20;99.90;;;;;;5052674;28;20040;-88
2021/09/20 09:10:15;;;;;;;6.75;4.68;;;17.50;99.90;;;;;;5052654;28;20021;-87
2021/09/20 09:12:41;;;;;;;5.55;5.03;;;17.50;99.90;;;;;;5052577;28;20392;-87
2021/09/20 09:15:10;;;;;;;7.22;4.93;;;17.60;99.90;;;;;;5052516;28;20452;-88
2021/09/20 09:17:47;;;;;;;6.40;5.80;;;17.60;99.90;;;;;;5052436;28;20025;-87
2021/09/20 09:20:19;;;;;;;5.55;4.85;;;17.70;99.90;;;;;;5052369;28;20029;-88
2021/09/20 09:23:02;;;;;;;7.60;6.35;;;17.80;99.90;;;;;;5053748;28;20025;-87
2021/09/20 09:25:40;;;;;;;5.70;4.90;;;17.60;99.90;;;;;;5054411;28;20388;-88
2021/09/20 09:28:14;;;;;;;8.88;5.40;;;17.60;99.90;;;;;;5053551;28;20048;-86
2021/09/20 09:30:43;;;;;;;5.10;4.60;;;17.50;99.90;;;;;;5052068;28;20512;-88
2021/09/20 09:33:10;;;;;;;6.60;5.00;;;17.50;99.90;;;;;;5052063;28;20507;-87
2021/09/20 09:35:38;;;;;;;5.57;4.90;;;17.40;99.90;;;;;;5052281;28;20024;-88
2021/09/20 09:38:06;;;;;;;5.72;4.93;;;17.40;99.90;;;;;;5053246;28;20193;-88
2021/09/20 09:40:43;;;;;;;4.68;4.07;;;17.40;99.90;;;;;;5052502;28;20021;-88
2021/09/20 09:43:09;;;;;;;5.20;4.70;;;17.60;99.90;;;;;;5054023;28;20400;-87
2021/09/20 09:45:35;;;;;;;6.65;4.95;;;17.60;99.90;;;;;;5060134;28;20033;-87
2021/09/20 09:48:10;;;;;;;7.43;5.80;;;17.50;99.90;;;;;;5055016;28;20071;-85
2021/09/20 09:50:56;;;;;;;9.63;5.72;;;17.40;99.90;;;;;;5052813;28;20021;-86
2021/09/20 09:53:24;;;;;;;7.07;6.07;;;17.10;99.90;;;;;;5052117;28;20422;-86
2021/09/20 09:55:51;;;;;;;16.85;7.22;;;17.00;99.90;;;;;;5051821;28;20045;-87
2021/09/20 09:58:19;;;;;;;16.30;6.20;;;17.00;99.90;;;;;;5052181;28;20017;-88
2021/09/20 10:00:45;;;;;;;9.52;6.05;;;17.10;99.90;;;;;;5052244;28;20381;-88
2021/09/20 10:03:10;;;;;;;12.55;6.97;;;17.10;99.90;;;;;;5051895;28;20017;-88
2021/09/20 10:05:36;;;;;;;15.98;7.80;;;17.20;99.90;;;;;;5051979;28;20020;-88
2021/09/20 10:08:11;;;;;;;13.88;8.52;;;17.10;99.90;;;;;;5052032;28;20060;-87
2021/09/20 10:10:38;;;;;;;18.35;10.68;;;17.10;99.90;;;;;;5052161;28;20021;-88
2021/09/20 10:13:04;;;;;;;12.18;8.07;;;17.10;99.90;;;;;;5052176;28;20029;-88
2021/09/20 10:15:31;;;;;;;22.65;8.45;;;17.10;99.90;;;;;;5051852;28;20082;-87
2021/09/20 10:17:59;;;;;;;14.93;9.40;;;17.10;99.90;;;;;;5051919;28;20078;-87
2021/09/20 10:20:26;;;;;;;12.65;9.88;;;17.00;99.90;;;;;;5052023;28;20507;-88
2021/09/20 10:22:53;;;;;;;16.67;9.60;;;17.10;99.90;;;;;;5053160;28;20484;-88
2021/09/20 10:25:21;;;;;;;15.77;9.52;;;17.10;99.90;;;;;;5051739;28;20110;-88
2021/09/20 10:27:48;;;;;;;15.63;8.00;;;17.20;99.90;;;;;;5051960;28;20028;-88
2021/09/20 10:30:18;;;;;;;15.68;7.93;;;17.30;99.90;;;;;;5051994;28;20034;-88
2021/09/20 10:32:51;;;;;;;14.18;8.68;;;17.30;99.90;;;;;;5052137;28;20025;-88
2021/09/20 10:35:31;;;;;;;11.85;7.05;;;17.30;99.90;;;;;;5053034;28;20396;-88
2021/09/20 10:38:29;;;;;;;11.63;7.05;;;17.40;99.90;;;;;;5053328;28;20502;-88
2021/09/20 10:41:23;;;;;;;12.63;7.18;;;17.30;99.90;;;;;;5051890;28;20057;-88
2021/09/20 10:44:04;;;;;;;11.70;7.25;;;17.30;99.90;;;;;;5052971;28;20025;-88
2021/09/20 10:46:35;;;;;;;12.30;6.70;;;17.40;99.90;;;;;;5051873;28;20029;-88
2021/09/20 10:49:03;;;;;;;11.20;8.15;;;17.50;99.90;;;;;;5051796;28;20415;-88
2021/09/20 10:51:39;;;;;;;11.43;6.97;;;17.60;99.90;;;;;;5052182;28;20100;-87
2021/09/20 10:54:14;;;;;;;11.68;7.20;;;17.70;99.90;;;;;;5051744;28;20092;-88
2021/09/20 10:56:40;;;;;;;12.77;9.55;;;17.60;99.90;;;;;;5051556;28;20041;-88
2021/09/20 10:59:08;;;;;;;13.00;7.65;;;17.60;99.90;;;;;;5051816;28;20039;-88
2021/09/20 11:01:34;;;;;;;8.93;6.82;;;17.80;99.90;;;;;;5052595;28;20040;-89
2021/09/20 11:04:05;;;;;;;11.63;7.07;;;17.90;99.90;;;;;;5052292;28;20124;-88
2021/09/20 11:06:30;;;;;;;12.15;7.53;;;18.00;99.90;;;;;;5056768;28;20377;-88
2021/09/20 11:08:59;;;;;;;11.48;7.63;;;18.10;99.90;;;;;;5055305;28;20021;-88
2021/09/20 11:11:37;;;;;;;11.10;7.22;;;18.30;99.90;;;;;;5055041;28;20071;-88
2021/09/20 11:14:18;;;;;;;9.18;6.03;;;18.30;99.90;;;;;;5055134;28;20021;-88
2021/09/20 11:16:54;;;;;;;7.68;6.60;;;18.20;99.90;;;;;;5054894;28;20029;-88
2021/09/20 11:19:26;;;;;;;8.18;6.75;;;18.10;99.90;;;;;;5054882;28;20047;-87
2021/09/20 11:22:04;;;;;;;9.07;7.20;;;18.00;99.90;;;;;;5055028;28;20028;-88
2021/09/20 11:24:36;;;;;;;10.90;5.93;;;18.00;99.90;;;;;;5054774;28;20508;-88
2021/09/20 11:27:03;;;;;;;9.13;6.93;;;18.10;99.90;;;;;;5054699;28;20587;-87
2021/09/20 11:29:30;;;;;;;10.00;6.88;;;17.90;99.90;;;;;;5054646;28;20384;-88
2021/09/20 11:31:56;;;;;;;8.18;6.68;;;17.80;99.90;;;;;;5055780;28;20027;-87
2021/09/20 11:34:30;;;;;;;13.30;6.70;;;18.10;99.90;;;;;;5054510;28;20123;-88
2021/09/20 11:37:19;;;;;;;8.10;6.23;;;18.20;99.90;;;;;;5054491;28;20392;-88
2021/09/20 11:39:47;;;;;;;7.78;6.63;;;18.10;99.90;;;;;;5055410;28;20259;-87
2021/09/20 11:42:15;;;;;;;8.60;7.18;;;18.10;99.90;;;;;;5054656;28;20037;-87
2021/09/20 11:44:59;;;;;;;12.57;8.10;;;18.30;99.90;;;;;;5054497;28;20385;-89
2021/09/20 11:47:28;;;;;;;11.98;8.55;;;18.10;99.90;;;;;;5055637;28;20022;-88
2021/09/20 11:50:07;;;;;;;11.32;8.15;;;18.20;99.90;;;;;;5054432;28;20021;-87
2021/09/20 11:52:35;;;;;;;9.25;7.93;;;18.10;99.90;;;;;;5055076;28;20480;-89
2021/09/20 11:55:02;;;;;;;8.82;7.85;;;18.30;99.90;;;;;;5055890;28;20045;-90
2021/09/20 11:57:33;;;;;;;13.73;8.07;;;18.40;99.90;;;;;;5012418;28;20402;-90
2021/09/20 12:00:04;;;;;;;11.20;7.00;;;18.40;99.90;;;;;;5021157;28;20026;-90
2021/09/20 12:02:39;;;;;;;10.27;7.47;;;18.60;99.90;;;;;;5036215;28;20504;-89
2021/09/20 12:05:06;;;;;;;10.25;6.88;;;18.60;99.90;;;;;;5018009;28;20026;-91
2021/09/20 12:07:49;;;;;;;11.90;7.78;;;18.90;99.90;;;;;;5017454;28;20021;-89
2021/09/20 12:10:21;;;;;;;7.72;6.90;;;18.90;99.90;;;;;;5017338;28;20028;-90
2021/09/20 12:12:50;;;;;;;9.75;7.90;;;18.80;99.90;;;;;;5017346;28;20028;-90
2021/09/20 12:15:18;;;;;;;8.60;7.30;;;18.80;99.90;;;;;;5017347;28;20026;-90
2021/09/20 12:18:24;;;;;;;10.75;7.13;;;18.80;99.90;;;;;;5034945;28;20029;-89
2021/09/20 12:21:02;;;;;;;9.15;7.38;;;18.70;99.90;;;;;;4997750;28;20060;-89
2021/09/20 12:23:30;;;;;;;10.70;8.38;;;18.70;99.90;;;;;;5017184;28;20037;-89
2021/09/20 12:26:02;;;;;;;12.35;8.63;;;18.60;99.90;;;;;;5017033;28;20026;-89
2021/09/20 12:29:00;;;;;;;10.73;7.80;;;18.60;99.90;;;;;;5017107;28;20044;-90
2021/09/20 12:31:36;;;;;;;10.20;8.32;;;18.60;99.90;;;;;;5017138;28;20133;-90
2021/09/20 12:34:12;;;;;;;11.43;8.90;;;18.80;99.90;;;;;;5034601;28;20366;-89
2021/09/20 12:36:48;;;;;;;9.20;8.23;;;18.70;99.90;;;;;;5017341;28;20152;-90
2021/09/20 12:39:17;;;;;;;8.75;6.70;;;18.90;99.90;;;;;;5016792;28;20026;-89
2021/09/20 12:42:03;;;;;;;12.38;7.07;;;19.00;99.90;;;;;;5016844;28;20144;-89
2021/09/20 12:44:31;;;;;;;9.52;7.90;;;18.90;99.90;;;;;;5016796;28;20029;-90
2021/09/20 12:47:29;;;;;;;9.90;8.23;;;18.70;99.90;;;;;;5017073;28;20026;-89
2021/09/20 12:49:58;;;;;;;9.60;7.40;;;18.90;99.90;;;;;;5011863;28;20038;-89